AV - LB | Pilotos de la V.A




 METAR AND TAF INFORMATION
METAR FOR EVRA
ADDS - METARS form results

(0334 UTC 19 May 2021)
Data provider http://aviationweather.gov/metar/data/
 
METAR text: EVRA 190320Z 32008KT 280V340 9999 -RA BKN005 OVC015 09/09 Q1003 NOSIG
Conditions at: EVRA (RIGA AIRPORT , LV) observed 0320 UTC 19 May 2021
Temperature: 9.0°C (48°F)
Dewpoint: 9.0°C (48°F) [RH = 100%]
Pressure (altimeter): 29.62 inches Hg (1003.0 mb)
Winds: from the NW (320 degrees) at 9 MPH (8 knots; 4.1 m/s)
Visibility: 6 or more miles (10+ km)
Ceiling: 500 feet AGL
Clouds: broken clouds at 500 feet AGL
overcast cloud deck at 1500 feet AGL
Weather: -RA  (light rain)

METAR text: EVRA 190250Z 32007KT 280V360 9999 -RA BKN004 OVC017 09/09 Q1003 NOSIG
Conditions at: EVRA (RIGA AIRPORT , LV) observed 0250 UTC 19 May 2021
Temperature: 9.0°C (48°F)
Dewpoint: 9.0°C (48°F) [RH = 100%]
Pressure (altimeter): 29.62 inches Hg (1003.0 mb)
Winds: from the NW (320 degrees) at 8 MPH (7 knots; 3.6 m/s)
Visibility: 6 or more miles (10+ km)
Ceiling: 400 feet AGL
Clouds: broken clouds at 400 feet AGL
overcast cloud deck at 1700 feet AGL
Weather: -RA  (light rain)

Forecast for: EVRA (RIGA AIRPORT , LV)
Text: TAF EVRA 190201Z 1903/2003 33007KT 9999 SCT040
Forecast period: 0300 UTC 19 May 2021 to 0300 UTC 20 May 2021
Forecast type: FROM: standard forecast or significant change
Winds: from the NNW (330 degrees) at 8 MPH (7 knots; 3.6 m/s)
Visibility: 6 or more miles (10+ km)
Ceiling: at least 12,000 feet AGL
Clouds: scattered clouds at 4000 feet AGL
Weather: no significant weather forecast for this period
Text: TEMPO 1903/1909 SHRA BKN005 SCT020CB
Forecast period: 0300 to 0900 UTC 19 May 2021
Forecast type: TEMPORARY: The following changes expected for less than half the time period
Visibility: missing
Ceiling: 500 feet AGL
Clouds: broken clouds at 500 feet AGL
scattered clouds at 2000 feet AGL
Weather: SHRA  (rain showers)

 AIRPORT MAP

 RUNWAY INFORMATION
Runway 18 Runway length 10499 ft Runway width 148 ft
Runway elevation 31 ft Runway displaced threshold 0 ft Runway heading 185
Runway 36 Runway length 10499 ft Runway width 148 ft
Runway elevation 34 ft Runway displaced threshold 0 ft Runway heading 5

 AIRPORT FREQUENCIES
Type APP Name APP Frequency 129.925 MHZ
Type ATIS Name ATIS Frequency 121.2 MHZ
Type GND Name Riga Groun Frequency 118.8 MHZ
Type MISC Name Riga Apron Frequency 131.6 MHZ
Type TWR Name TWR Frequency 118.1 MHZ

 AIRPORT NEAR NAVIGATION AIDS
Type VOR-DME Name Riga Frequency 112050 KHZ
Type VOR-DME Name Riga Frequency 113700 KHZ